sensor_id;sensor_type;location;lat;lon;timestamp;pressure;altitude;pressure_sealevel;temperature;humidity
25080;BME280;13071;48.868;9.996;2023-04-19T00:01:56;97047.38;;;8.40;95.41
25080;BME280;13071;48.868;9.996;2023-04-19T00:04:24;97043.69;;;8.36;95.67
25080;BME280;13071;48.868;9.996;2023-04-19T00:06:51;97045.31;;;8.37;96.04
25080;BME280;13071;48.868;9.996;2023-04-19T00:09:18;97038.44;;;8.31;96.88
25080;BME280;13071;48.868;9.996;2023-04-19T00:11:44;97045.59;;;8.35;96.19
25080;BME280;13071;48.868;9.996;2023-04-19T00:14:11;97046.09;;;8.37;95.46
25080;BME280;13071;48.868;9.996;2023-04-19T00:16:37;97043.22;;;8.34;95.97
25080;BME280;13071;48.868;9.996;2023-04-19T00:19:04;97043.09;;;8.39;95.43
25080;BME280;13071;48.868;9.996;2023-04-19T00:21:32;97038.00;;;8.37;95.45
25080;BME280;13071;48.868;9.996;2023-04-19T00:24:01;97046.53;;;8.17;97.33
25080;BME280;13071;48.868;9.996;2023-04-19T00:26:28;97042.00;;;8.26;97.01
25080;BME280;13071;48.868;9.996;2023-04-19T00:28:54;97034.88;;;8.08;98.06
25080;BME280;13071;48.868;9.996;2023-04-19T00:31:21;97034.03;;;8.21;97.78
25080;BME280;13071;48.868;9.996;2023-04-19T00:33:47;97031.13;;;8.31;96.40
25080;BME280;13071;48.868;9.996;2023-04-19T00:36:14;97036.16;;;8.10;98.16
25080;BME280;13071;48.868;9.996;2023-04-19T00:38:42;97036.47;;;8.09;97.88
25080;BME280;13071;48.868;9.996;2023-04-19T00:41:08;97029.06;;;8.14;98.20
25080;BME280;13071;48.868;9.996;2023-04-19T00:43:35;97028.63;;;8.21;97.07
25080;BME280;13071;48.868;9.996;2023-04-19T00:46:01;97032.25;;;8.16;97.65
25080;BME280;13071;48.868;9.996;2023-04-19T00:48:28;97026.16;;;8.11;97.38
25080;BME280;13071;48.868;9.996;2023-04-19T00:50:56;97031.59;;;7.97;97.55
25080;BME280;13071;48.868;9.996;2023-04-19T00:53:22;97025.69;;;8.09;97.53
25080;BME280;13071;48.868;9.996;2023-04-19T00:55:51;97028.94;;;8.19;97.34
25080;BME280;13071;48.868;9.996;2023-04-19T00:58:18;97029.72;;;7.98;98.30
25080;BME280;13071;48.868;9.996;2023-04-19T01:00:45;97027.94;;;7.93;99.14
25080;BME280;13071;48.868;9.996;2023-04-19T01:03:11;97020.50;;;8.12;97.64
25080;BME280;13071;48.868;9.996;2023-04-19T01:05:38;97021.19;;;8.04;97.69
25080;BME280;13071;48.868;9.996;2023-04-19T01:08:05;97020.03;;;8.19;97.10
25080;BME280;13071;48.868;9.996;2023-04-19T01:10:32;97014.66;;;8.19;97.09
25080;BME280;13071;48.868;9.996;2023-04-19T01:13:01;97014.97;;;8.17;96.94
25080;BME280;13071;48.868;9.996;2023-04-19T01:15:27;97012.56;;;8.16;97.04
25080;BME280;13071;48.868;9.996;2023-04-19T01:17:55;97013.31;;;8.08;97.06
25080;BME280;13071;48.868;9.996;2023-04-19T01:20:22;97010.78;;;8.11;97.16
25080;BME280;13071;48.868;9.996;2023-04-19T01:22:50;97007.22;;;8.02;98.00
25080;BME280;13071;48.868;9.996;2023-04-19T01:25:16;97008.41;;;8.10;98.00
25080;BME280;13071;48.868;9.996;2023-04-19T01:27:43;97002.28;;;8.18;96.57
25080;BME280;13071;48.868;9.996;2023-04-19T01:30:11;97002.19;;;8.09;96.97
25080;BME280;13071;48.868;9.996;2023-04-19T01:32:37;97004.84;;;8.01;97.30
25080;BME280;13071;48.868;9.996;2023-04-19T01:35:04;96993.56;;;7.99;97.59
25080;BME280;13071;48.868;9.996;2023-04-19T01:37:34;96994.75;;;8.06;97.15
25080;BME280;13071;48.868;9.996;2023-04-19T01:40:02;96995.28;;;7.81;98.27
25080;BME280;13071;48.868;9.996;2023-04-19T01:42:29;96985.59;;;7.94;98.39
25080;BME280;13071;48.868;9.996;2023-04-19T01:44:56;96988.19;;;7.99;98.28
25080;BME280;13071;48.868;9.996;2023-04-19T01:47:22;96985.66;;;8.02;97.61
25080;BME280;13071;48.868;9.996;2023-04-19T01:49:49;96979.75;;;8.14;96.91
25080;BME280;13071;48.868;9.996;2023-04-19T01:52:15;96983.44;;;8.18;96.41
25080;BME280;13071;48.868;9.996;2023-04-19T01:54:42;96982.31;;;8.19;96.17
25080;BME280;13071;48.868;9.996;2023-04-19T01:57:10;96985.19;;;8.22;96.00
25080;BME280;13071;48.868;9.996;2023-04-19T01:59:36;96979.75;;;8.14;96.02
25080;BME280;13071;48.868;9.996;2023-04-19T02:02:05;96979.94;;;8.17;95.58
25080;BME280;13071;48.868;9.996;2023-04-19T02:04:32;96977.47;;;8.07;96.41
25080;BME280;13071;48.868;9.996;2023-04-19T02:06:59;96977.88;;;8.01;96.69
25080;BME280;13071;48.868;9.996;2023-04-19T02:09:26;96971.91;;;7.90;98.33
25080;BME280;13071;48.868;9.996;2023-04-19T02:11:52;96964.34;;;7.92;97.64
25080;BME280;13071;48.868;9.996;2023-04-19T02:14:20;96966.63;;;7.99;96.83
25080;BME280;13071;48.868;9.996;2023-04-19T02:16:47;96964.50;;;7.73;98.32
25080;BME280;13071;48.868;9.996;2023-04-19T02:19:14;96960.03;;;7.55;99.56
25080;BME280;13071;48.868;9.996;2023-04-19T02:21:40;96962.34;;;7.48;100.00
25080;BME280;13071;48.868;9.996;2023-04-19T02:24:07;96952.63;;;7.61;100.00
25080;BME280;13071;48.868;9.996;2023-04-19T02:26:33;96955.63;;;7.73;99.08
25080;BME280;13071;48.868;9.996;2023-04-19T02:29:00;96962.78;;;7.77;99.24
25080;BME280;13071;48.868;9.996;2023-04-19T02:31:28;96958.66;;;7.94;97.60
25080;BME280;13071;48.868;9.996;2023-04-19T02:33:55;96955.28;;;7.88;97.23
25080;BME280;13071;48.868;9.996;2023-04-19T02:36:22;96955.63;;;7.73;98.01
25080;BME280;13071;48.868;9.996;2023-04-19T02:38:48;96948.44;;;7.68;98.73
25080;BME280;13071;48.868;9.996;2023-04-19T02:41:15;96949.94;;;7.74;98.68
25080;BME280;13071;48.868;9.996;2023-04-19T02:43:41;96946.53;;;7.69;98.78
25080;BME280;13071;48.868;9.996;2023-04-19T02:46:09;96947.31;;;7.83;98.12
25080;BME280;13071;48.868;9.996;2023-04-19T02:48:37;96949.25;;;7.69;98.12
25080;BME280;13071;48.868;9.996;2023-04-19T02:51:03;96944.94;;;7.68;98.01
25080;BME280;13071;48.868;9.996;2023-04-19T02:53:30;96944.41;;;7.79;97.27
25080;BME280;13071;48.868;9.996;2023-04-19T02:55:56;96945.44;;;7.70;98.12
25080;BME280;13071;48.868;9.996;2023-04-19T02:58:23;96948.66;;;7.58;99.49
25080;BME280;13071;48.868;9.996;2023-04-19T03:00:50;96943.97;;;7.64;99.20
25080;BME280;13071;48.868;9.996;2023-04-19T03:03:17;96937.28;;;7.61;99.19
25080;BME280;13071;48.868;9.996;2023-04-19T03:05:45;96935.88;;;7.64;98.48
25080;BME280;13071;48.868;9.996;2023-04-19T03:08:11;96942.94;;;7.73;98.72
25080;BME280;13071;48.868;9.996;2023-04-19T03:10:38;96934.47;;;7.66;98.84
25080;BME280;13071;48.868;9.996;2023-04-19T03:13:04;96936.69;;;7.64;98.52
25080;BME280;13071;48.868;9.996;2023-04-19T03:15:31;96939.50;;;7.46;99.07
25080;BME280;13071;48.868;9.996;2023-04-19T03:17:58;96940.97;;;7.52;99.09
25080;BME280;13071;48.868;9.996;2023-04-19T03:20:24;96942.97;;;7.46;98.56
25080;BME280;13071;48.868;9.996;2023-04-19T03:22:52;96934.63;;;7.48;98.28
25080;BME280;13071;48.868;9.996;2023-04-19T03:25:19;96941.78;;;7.52;97.90
25080;BME280;13071;48.868;9.996;2023-04-19T03:27:46;96936.25;;;7.35;98.33
25080;BME280;13071;48.868;9.996;2023-04-19T03:30:14;96929.16;;;7.39;99.27
25080;BME280;13071;48.868;9.996;2023-04-19T03:32:40;96930.81;;;7.49;98.23
25080;BME280;13071;48.868;9.996;2023-04-19T03:35:08;96925.44;;;7.49;98.26
25080;BME280;13071;48.868;9.996;2023-04-19T03:37:34;96924.34;;;7.36;98.54
25080;BME280;13071;48.868;9.996;2023-04-19T03:40:02;96921.75;;;7.45;97.74
25080;BME280;13071;48.868;9.996;2023-04-19T03:42:29;96922.19;;;7.60;97.58
25080;BME280;13071;48.868;9.996;2023-04-19T03:44:56;96922.81;;;7.57;97.12
25080;BME280;13071;48.868;9.996;2023-04-19T03:47:22;96921.84;;;7.53;97.59
25080;BME280;13071;48.868;9.996;2023-04-19T03:49:49;96922.53;;;7.59;97.51
25080;BME280;13071;48.868;9.996;2023-04-19T03:52:15;96919.44;;;7.52;97.26
25080;BME280;13071;48.868;9.996;2023-04-19T03:54:42;96911.88;;;7.40;98.23
25080;BME280;13071;48.868;9.996;2023-04-19T03:57:12;96906.59;;;7.49;97.70
25080;BME280;13071;48.868;9.996;2023-04-19T03:59:39;96913.72;;;7.17;98.57
25080;BME280;13071;48.868;9.996;2023-04-19T04:02:06;96906.53;;;7.13;99.19
25080;BME280;13071;48.868;9.996;2023-04-19T04:04:32;96907.44;;;7.08;99.99
25080;BME280;13071;48.868;9.996;2023-04-19T04:06:59;96916.59;;;7.21;99.16
25080;BME280;13071;48.868;9.996;2023-04-19T04:09:26;96916.81;;;7.24;98.42
25080;BME280;13071;48.868;9.996;2023-04-19T04:11:53;96916.31;;;7.09;98.71
25080;BME280;13071;48.868;9.996;2023-04-19T04:14:21;96918.72;;;7.10;99.19
25080;BME280;13071;48.868;9.996;2023-04-19T04:16:47;96930.25;;;6.97;99.98
25080;BME280;13071;48.868;9.996;2023-04-19T04:19:14;96922.28;;;7.19;99.35
25080;BME280;13071;48.868;9.996;2023-04-19T04:21:40;96919.38;;;7.16;98.63
25080;BME280;13071;48.868;9.996;2023-04-19T04:24:07;96922.06;;;7.16;99.11
25080;BME280;13071;48.868;9.996;2023-04-19T04:26:34;96926.66;;;7.29;98.22
25080;BME280;13071;48.868;9.996;2023-04-19T04:29:03;96925.59;;;7.03;98.79
25080;BME280;13071;48.868;9.996;2023-04-19T04:31:31;96925.69;;;6.98;99.37
25080;BME280;13071;48.868;9.996;2023-04-19T04:34:00;96917.31;;;7.13;98.72
25080;BME280;13071;48.868;9.996;2023-04-19T04:36:26;96925.06;;;7.01;98.95
25080;BME280;13071;48.868;9.996;2023-04-19T04:38:54;96928.38;;;7.11;98.73
25080;BME280;13071;48.868;9.996;2023-04-19T04:41:21;96929.47;;;7.24;98.66
25080;BME280;13071;48.868;9.996;2023-04-19T04:43:48;96925.47;;;7.21;98.49
25080;BME280;13071;48.868;9.996;2023-04-19T04:46:15;96924.09;;;7.10;99.98
25080;BME280;13071;48.868;9.996;2023-04-19T04:48:44;96933.38;;;7.04;100.00
25080;BME280;13071;48.868;9.996;2023-04-19T04:51:10;96922.47;;;7.23;99.79
25080;BME280;13071;48.868;9.996;2023-04-19T04:53:37;96922.28;;;7.06;100.00
25080;BME280;13071;48.868;9.996;2023-04-19T04:56:04;96917.50;;;7.16;99.22
25080;BME280;13071;48.868;9.996;2023-04-19T04:58:30;96920.97;;;7.30;97.54
25080;BME280;13071;48.868;9.996;2023-04-19T05:00:57;96912.13;;;7.30;97.57
25080;BME280;13071;48.868;9.996;2023-04-19T05:03:24;96918.78;;;7.32;97.55
25080;BME280;13071;48.868;9.996;2023-04-19T05:05:52;96922.84;;;7.44;97.60
25080;BME280;13071;48.868;9.996;2023-04-19T05:08:19;96923.03;;;7.47;97.40
25080;BME280;13071;48.868;9.996;2023-04-19T05:10:45;96924.34;;;7.36;97.13
25080;BME280;13071;48.868;9.996;2023-04-19T05:13:12;96926.88;;;7.19;98.23
25080;BME280;13071;48.868;9.996;2023-04-19T05:15:39;96919.00;;;7.22;98.55
25080;BME280;13071;48.868;9.996;2023-04-19T05:18:05;96924.34;;;7.50;96.50
25080;BME280;13071;48.868;9.996;2023-04-19T05:20:32;96924.16;;;7.32;96.88
25080;BME280;13071;48.868;9.996;2023-04-19T05:23:00;96926.25;;;7.22;98.92
25080;BME280;13071;48.868;9.996;2023-04-19T05:25:28;96927.88;;;7.23;98.79
25080;BME280;13071;48.868;9.996;2023-04-19T05:27:55;96924.84;;;7.38;98.10
25080;BME280;13071;48.868;9.996;2023-04-19T05:30:22;96922.44;;;7.50;96.46
25080;BME280;13071;48.868;9.996;2023-04-19T05:32:48;96921.03;;;7.53;96.72
25080;BME280;13071;48.868;9.996;2023-04-19T05:35:16;96929.25;;;7.20;97.87
25080;BME280;13071;48.868;9.996;2023-04-19T05:37:43;96924.94;;;7.47;97.16
25080;BME280;13071;48.868;9.996;2023-04-19T05:40:11;96920.28;;;7.74;96.49
25080;BME280;13071;48.868;9.996;2023-04-19T05:42:38;96922.56;;;7.81;95.25
25080;BME280;13071;48.868;9.996;2023-04-19T05:45:05;96925.34;;;7.54;95.83
25080;BME280;13071;48.868;9.996;2023-04-19T05:47:32;96920.63;;;7.46;97.34
25080;BME280;13071;48.868;9.996;2023-04-19T05:49:59;96916.47;;;7.40;97.23
25080;BME280;13071;48.868;9.996;2023-04-19T05:52:25;96919.31;;;7.57;97.47
25080;BME280;13071;48.868;9.996;2023-04-19T05:54:52;96920.31;;;7.61;96.86
25080;BME280;13071;48.868;9.996;2023-04-19T05:57:20;96917.13;;;7.59;97.63
25080;BME280;13071;48.868;9.996;2023-04-19T05:59:46;96914.50;;;7.67;97.02
25080;BME280;13071;48.868;9.996;2023-04-19T06:02:13;96919.69;;;7.77;95.87
25080;BME280;13071;48.868;9.996;2023-04-19T06:04:40;96924.94;;;7.82;95.24
25080;BME280;13071;48.868;9.996;2023-04-19T06:07:06;96922.06;;;8.01;95.11
25080;BME280;13071;48.868;9.996;2023-04-19T06:09:33;96923.63;;;7.80;93.56
25080;BME280;13071;48.868;9.996;2023-04-19T06:11:59;96929.41;;;7.87;94.82
25080;BME280;13071;48.868;9.996;2023-04-19T06:14:27;96922.41;;;7.64;95.65
25080;BME280;13071;48.868;9.996;2023-04-19T06:16:54;96915.28;;;8.04;95.01
25080;BME280;13071;48.868;9.996;2023-04-19T06:19:21;96916.28;;;8.08;95.21
25080;BME280;13071;48.868;9.996;2023-04-19T06:21:48;96918.97;;;8.08;93.28
25080;BME280;13071;48.868;9.996;2023-04-19T06:24:15;96914.38;;;8.08;94.03
25080;BME280;13071;48.868;9.996;2023-04-19T06:26:41;96915.41;;;8.21;93.34
25080;BME280;13071;48.868;9.996;2023-04-19T06:29:08;96920.44;;;8.14;93.23
25080;BME280;13071;48.868;9.996;2023-04-19T06:31:36;96911.78;;;8.48;91.50
25080;BME280;13071;48.868;9.996;2023-04-19T06:34:03;96918.59;;;8.76;90.21
25080;BME280;13071;48.868;9.996;2023-04-19T06:36:29;96922.06;;;8.68;89.89
25080;BME280;13071;48.868;9.996;2023-04-19T06:38:56;96905.75;;;8.82;89.49
25080;BME280;13071;48.868;9.996;2023-04-19T06:41:22;96909.81;;;8.62;90.75
25080;BME280;13071;48.868;9.996;2023-04-19T06:43:49;96910.66;;;8.80;90.27
25080;BME280;13071;48.868;9.996;2023-04-19T06:46:16;96913.78;;;8.64;90.13
25080;BME280;13071;48.868;9.996;2023-04-19T06:48:44;96912.00;;;8.60;91.30
25080;BME280;13071;48.868;9.996;2023-04-19T06:51:10;96915.28;;;8.48;90.89
25080;BME280;13071;48.868;9.996;2023-04-19T06:53:37;96913.59;;;8.61;91.24
25080;BME280;13071;48.868;9.996;2023-04-19T06:56:04;96915.88;;;8.68;91.10
25080;BME280;13071;48.868;9.996;2023-04-19T06:58:31;96911.66;;;8.53;90.89
25080;BME280;13071;48.868;9.996;2023-04-19T07:00:58;96909.06;;;8.79;90.53
25080;BME280;13071;48.868;9.996;2023-04-19T07:03:25;96911.13;;;8.73;90.13
25080;BME280;13071;48.868;9.996;2023-04-19T07:05:53;96912.53;;;9.10;88.02
25080;BME280;13071;48.868;9.996;2023-04-19T07:08:21;96901.28;;;9.17;87.42
25080;BME280;13071;48.868;9.996;2023-04-19T07:10:48;96903.56;;;8.53;90.88
25080;BME280;13071;48.868;9.996;2023-04-19T07:13:14;96912.81;;;8.60;91.12
25080;BME280;13071;48.868;9.996;2023-04-19T07:15:41;96899.75;;;8.93;88.91
25080;BME280;13071;48.868;9.996;2023-04-19T07:18:07;96906.81;;;9.12;87.47
25080;BME280;13071;48.868;9.996;2023-04-19T07:20:35;96902.50;;;9.02;87.47
25080;BME280;13071;48.868;9.996;2023-04-19T07:23:03;96893.91;;;9.00;87.62
25080;BME280;13071;48.868;9.996;2023-04-19T07:25:30;96897.69;;;8.90;88.15
25080;BME280;13071;48.868;9.996;2023-04-19T07:27:56;96897.78;;;9.16;87.02
25080;BME280;13071;48.868;9.996;2023-04-19T07:30:23;96887.28;;;9.06;87.50
25080;BME280;13071;48.868;9.996;2023-04-19T07:32:49;96891.59;;;9.16;85.24
25080;BME280;13071;48.868;9.996;2023-04-19T07:35:17;96888.59;;;9.34;85.14
25080;BME280;13071;48.868;9.996;2023-04-19T07:37:44;96891.81;;;9.45;85.08
25080;BME280;13071;48.868;9.996;2023-04-19T07:40:13;96882.09;;;9.52;86.49
25080;BME280;13071;48.868;9.996;2023-04-19T07:42:39;96885.94;;;9.60;84.87
25080;BME280;13071;48.868;9.996;2023-04-19T07:45:07;96880.69;;;9.72;83.44
25080;BME280;13071;48.868;9.996;2023-04-19T07:47:34;96883.88;;;10.00;82.77
25080;BME280;13071;48.868;9.996;2023-04-19T07:50:00;96879.84;;;9.37;84.52
25080;BME280;13071;48.868;9.996;2023-04-19T07:52:27;96876.69;;;9.52;84.28
25080;BME280;13071;48.868;9.996;2023-04-19T07:54:54;96871.16;;;9.75;84.37
25080;BME280;13071;48.868;9.996;2023-04-19T07:57:22;96858.22;;;10.32;81.51
25080;BME280;13071;48.868;9.996;2023-04-19T07:59:49;96865.25;;;10.71;80.42
25080;BME280;13071;48.868;9.996;2023-04-19T08:02:15;96859.84;;;10.71;78.27
25080;BME280;13071;48.868;9.996;2023-04-19T08:04:43;96868.28;;;9.97;79.38
25080;BME280;13071;48.868;9.996;2023-04-19T08:07:12;96860.31;;;10.09;81.63
25080;BME280;13071;48.868;9.996;2023-04-19T08:09:38;96861.25;;;10.13;80.31
25080;BME280;13071;48.868;9.996;2023-04-19T08:12:06;96860.63;;;10.33;79.03
25080;BME280;13071;48.868;9.996;2023-04-19T08:14:34;96867.47;;;10.14;81.29
25080;BME280;13071;48.868;9.996;2023-04-19T08:17:03;96861.44;;;10.17;81.19
25080;BME280;13071;48.868;9.996;2023-04-19T08:19:29;96854.28;;;10.21;81.02
25080;BME280;13071;48.868;9.996;2023-04-19T08:21:56;96863.50;;;9.77;81.96
25080;BME280;13071;48.868;9.996;2023-04-19T08:24:24;96854.94;;;9.40;85.12
25080;BME280;13071;48.868;9.996;2023-04-19T08:26:52;96862.88;;;9.54;84.44
25080;BME280;13071;48.868;9.996;2023-04-19T08:29:19;96857.00;;;9.61;84.39
25080;BME280;13071;48.868;9.996;2023-04-19T08:31:47;96860.00;;;9.33;85.82
25080;BME280;13071;48.868;9.996;2023-04-19T08:34:14;96850.44;;;9.19;87.63
25080;BME280;13071;48.868;9.996;2023-04-19T08:36:40;96859.06;;;9.64;86.66
25080;BME280;13071;48.868;9.996;2023-04-19T08:39:07;96854.63;;;9.59;86.34
25080;BME280;13071;48.868;9.996;2023-04-19T08:41:34;96861.91;;;9.67;86.53
25080;BME280;13071;48.868;9.996;2023-04-19T08:44:02;96847.94;;;9.74;85.46
25080;BME280;13071;48.868;9.996;2023-04-19T08:46:29;96844.94;;;9.75;85.83
25080;BME280;13071;48.868;9.996;2023-04-19T08:48:58;96842.22;;;9.84;85.65
25080;BME280;13071;48.868;9.996;2023-04-19T08:51:25;96832.50;;;10.00;84.52
25080;BME280;13071;48.868;9.996;2023-04-19T08:53:54;96834.38;;;10.08;84.73
25080;BME280;13071;48.868;9.996;2023-04-19T08:56:22;96832.50;;;10.00;85.08
25080;BME280;13071;48.868;9.996;2023-04-19T08:58:49;96829.28;;;10.07;83.55
25080;BME280;13071;48.868;9.996;2023-04-19T09:01:16;96839.03;;;9.65;84.63
25080;BME280;13071;48.868;9.996;2023-04-19T09:03:42;96842.69;;;9.86;83.86
25080;BME280;13071;48.868;9.996;2023-04-19T09:06:12;96822.34;;;9.54;84.63
25080;BME280;13071;48.868;9.996;2023-04-19T09:08:39;96829.84;;;9.66;84.71
25080;BME280;13071;48.868;9.996;2023-04-19T09:11:06;96828.41;;;9.60;85.80
25080;BME280;13071;48.868;9.996;2023-04-19T09:13:34;96824.88;;;9.85;87.15
25080;BME280;13071;48.868;9.996;2023-04-19T09:16:02;96827.59;;;9.76;85.58
25080;BME280;13071;48.868;9.996;2023-04-19T09:18:30;96823.78;;;9.51;85.47
25080;BME280;13071;48.868;9.996;2023-04-19T09:20:56;96832.34;;;9.62;86.86
25080;BME280;13071;48.868;9.996;2023-04-19T09:23:26;96833.16;;;9.80;86.43
25080;BME280;13071;48.868;9.996;2023-04-19T09:25:54;96830.59;;;9.58;87.37
25080;BME280;13071;48.868;9.996;2023-04-19T09:28:22;96831.06;;;9.42;88.39
25080;BME280;13071;48.868;9.996;2023-04-19T09:30:48;96825.84;;;9.37;88.41
25080;BME280;13071;48.868;9.996;2023-04-19T09:33:30;96823.78;;;9.34;87.90
25080;BME280;13071;48.868;9.996;2023-04-19T09:35:58;96821.38;;;9.84;88.32
25080;BME280;13071;48.868;9.996;2023-04-19T09:38:26;96818.84;;;9.71;87.86
25080;BME280;13071;48.868;9.996;2023-04-19T09:41:04;96808.03;;;9.79;86.39
25080;BME280;13071;48.868;9.996;2023-04-19T09:43:31;96805.66;;;9.86;88.36
25080;BME280;13071;48.868;9.996;2023-04-19T09:45:58;96803.72;;;9.87;86.54
25080;BME280;13071;48.868;9.996;2023-04-19T09:48:25;96805.28;;;9.96;85.64
25080;BME280;13071;48.868;9.996;2023-04-19T09:50:52;96800.06;;;10.55;83.72
25080;BME280;13071;48.868;9.996;2023-04-19T09:53:20;96799.44;;;9.77;86.20
25080;BME280;13071;48.868;9.996;2023-04-19T09:55:48;96804.00;;;10.03;86.52
25080;BME280;13071;48.868;9.996;2023-04-19T09:58:15;96795.09;;;10.02;85.99
25080;BME280;13071;48.868;9.996;2023-04-19T10:00:43;96789.97;;;10.26;85.25
25080;BME280;13071;48.868;9.996;2023-04-19T10:03:13;96794.31;;;10.02;84.04
25080;BME280;13071;48.868;9.996;2023-04-19T10:05:40;96782.78;;;10.39;83.76
25080;BME280;13071;48.868;9.996;2023-04-19T10:08:08;96787.28;;;10.18;82.92
25080;BME280;13071;48.868;9.996;2023-04-19T10:10:36;96787.97;;;9.89;84.58
25080;BME280;13071;48.868;9.996;2023-04-19T10:13:06;96787.03;;;9.85;84.46
25080;BME280;13071;48.868;9.996;2023-04-19T10:15:34;96786.09;;;9.81;86.38
25080;BME280;13071;48.868;9.996;2023-04-19T10:18:01;96779.88;;;9.89;85.17
25080;BME280;13071;48.868;9.996;2023-04-19T10:20:32;96776.72;;;9.70;87.72
25080;BME280;13071;48.868;9.996;2023-04-19T10:23:01;96780.34;;;9.82;85.97
25080;BME280;13071;48.868;9.996;2023-04-19T10:25:29;96774.97;;;9.74;87.01
25080;BME280;13071;48.868;9.996;2023-04-19T10:27:56;96771.31;;;9.70;86.71
25080;BME280;13071;48.868;9.996;2023-04-19T10:30:24;96772.25;;;9.82;86.57
25080;BME280;13071;48.868;9.996;2023-04-19T10:32:54;96772.88;;;9.88;85.56
25080;BME280;13071;48.868;9.996;2023-04-19T10:35:23;96769.44;;;9.62;86.37
25080;BME280;13071;48.868;9.996;2023-04-19T10:38:04;96762.13;;;9.53;87.37
25080;BME280;13071;48.868;9.996;2023-04-19T10:40:56;96776.56;;;9.58;88.35
25080;BME280;13071;48.868;9.996;2023-04-19T10:43:26;96762.09;;;9.62;87.02
25080;BME280;13071;48.868;9.996;2023-04-19T10:45:54;96770.72;;;9.47;87.58
25080;BME280;13071;48.868;9.996;2023-04-19T10:48:31;96761.97;;;9.33;88.87
25080;BME280;13071;48.868;9.996;2023-04-19T10:51:00;96767.69;;;9.23;90.08
25080;BME280;13071;48.868;9.996;2023-04-19T10:53:56;96761.94;;;8.90;92.91
25080;BME280;13071;48.868;9.996;2023-04-19T10:59:36;96753.50;;;8.74;97.53
25080;BME280;13071;48.868;9.996;2023-04-19T11:02:25;96757.16;;;8.78;98.59
25080;BME280;13071;48.868;9.996;2023-04-19T11:05:00;96751.13;;;8.81;98.91
25080;BME280;13071;48.868;9.996;2023-04-19T11:07:27;96752.41;;;8.84;99.88
25080;BME280;13071;48.868;9.996;2023-04-19T11:09:54;96752.94;;;9.12;99.09
25080;BME280;13071;48.868;9.996;2023-04-19T11:12:20;96749.53;;;8.80;99.17
25080;BME280;13071;48.868;9.996;2023-04-19T11:14:48;96754.25;;;8.57;100.00
25080;BME280;13071;48.868;9.996;2023-04-19T11:17:19;96752.84;;;8.20;100.00
25080;BME280;13071;48.868;9.996;2023-04-19T11:19:53;96752.38;;;8.27;100.00
25080;BME280;13071;48.868;9.996;2023-04-19T11:22:30;96750.84;;;8.35;100.00
25080;BME280;13071;48.868;9.996;2023-04-19T11:25:04;96742.53;;;8.22;100.00
25080;BME280;13071;48.868;9.996;2023-04-19T11:27:31;96743.41;;;8.40;100.00
25080;BME280;13071;48.868;9.996;2023-04-19T11:30:01;96745.41;;;8.26;100.00
25080;BME280;13071;48.868;9.996;2023-04-19T11:32:30;96752.81;;;8.12;100.00
25080;BME280;13071;48.868;9.996;2023-04-19T11:34:56;96744.88;;;8.15;100.00
25080;BME280;13071;48.868;9.996;2023-04-19T11:37:23;96739.50;;;7.85;100.00
25080;BME280;13071;48.868;9.996;2023-04-19T11:39:49;96740.53;;;7.97;100.00
25080;BME280;13071;48.868;9.996;2023-04-19T11:42:17;96743.09;;;8.02;100.00
25080;BME280;13071;48.868;9.996;2023-04-19T11:44:48;96734.31;;;7.88;100.00
25080;BME280;13071;48.868;9.996;2023-04-19T11:47:15;96732.19;;;7.76;100.00
25080;BME280;13071;48.868;9.996;2023-04-19T11:49:43;96729.50;;;7.85;100.00
25080;BME280;13071;48.868;9.996;2023-04-19T11:52:09;96731.41;;;7.85;100.00
25080;BME280;13071;48.868;9.996;2023-04-19T11:54:36;96731.59;;;7.88;100.00
25080;BME280;13071;48.868;9.996;2023-04-19T11:57:05;96720.44;;;8.03;100.00
25080;BME280;13071;48.868;9.996;2023-04-19T11:59:33;96729.88;;;7.92;100.00
25080;BME280;13071;48.868;9.996;2023-04-19T12:02:07;96725.41;;;8.18;100.00
25080;BME280;13071;48.868;9.996;2023-04-19T12:04:34;96734.63;;;7.95;100.00
25080;BME280;13071;48.868;9.996;2023-04-19T12:07:03;96731.91;;;7.87;100.00
25080;BME280;13071;48.868;9.996;2023-04-19T12:09:32;96726.75;;;7.99;100.00
25080;BME280;13071;48.868;9.996;2023-04-19T12:11:59;96736.69;;;7.59;100.00
25080;BME280;13071;48.868;9.996;2023-04-19T12:14:26;96735.28;;;7.92;100.00
25080;BME280;13071;48.868;9.996;2023-04-19T12:17:07;96724.53;;;8.01;100.00
25080;BME280;13071;48.868;9.996;2023-04-19T12:19:35;96732.59;;;8.01;99.72
25080;BME280;13071;48.868;9.996;2023-04-19T12:22:14;96733.41;;;8.01;97.72
25080;BME280;13071;48.868;9.996;2023-04-19T12:24:41;96729.59;;;8.02;96.58
25080;BME280;13071;48.868;9.996;2023-04-19T12:27:08;96716.75;;;7.99;97.70
25080;BME280;13071;48.868;9.996;2023-04-19T12:29:35;96714.63;;;8.27;98.10
25080;BME280;13071;48.868;9.996;2023-04-19T12:32:02;96718.56;;;7.81;100.00
25080;BME280;13071;48.868;9.996;2023-04-19T12:34:29;96713.44;;;8.02;99.58
25080;BME280;13071;48.868;9.996;2023-04-19T12:36:56;96715.16;;;7.98;100.00
25080;BME280;13071;48.868;9.996;2023-04-19T12:39:24;96720.75;;;8.10;100.00
25080;BME280;13071;48.868;9.996;2023-04-19T12:41:51;96714.03;;;7.99;100.00
25080;BME280;13071;48.868;9.996;2023-04-19T12:44:17;96712.19;;;8.08;100.00
25080;BME280;13071;48.868;9.996;2023-04-19T12:46:44;96710.75;;;8.02;100.00
25080;BME280;13071;48.868;9.996;2023-04-19T12:49:10;96709.69;;;7.81;98.24
25080;BME280;13071;48.868;9.996;2023-04-19T12:51:37;96707.84;;;8.30;97.88
25080;BME280;13071;48.868;9.996;2023-04-19T12:54:04;96702.84;;;8.14;99.15
25080;BME280;13071;48.868;9.996;2023-04-19T12:56:33;96705.94;;;7.91;94.80
25080;BME280;13071;48.868;9.996;2023-04-19T12:59:00;96713.03;;;8.17;93.86
25080;BME280;13071;48.868;9.996;2023-04-19T13:01:26;96703.25;;;8.30;94.08
25080;BME280;13071;48.868;9.996;2023-04-19T13:03:53;96705.81;;;8.04;94.22
25080;BME280;13071;48.868;9.996;2023-04-19T13:06:19;96706.00;;;8.08;95.12
25080;BME280;13071;48.868;9.996;2023-04-19T13:08:46;96698.34;;;8.32;93.85
25080;BME280;13071;48.868;9.996;2023-04-19T13:11:13;96700.56;;;8.30;93.75
25080;BME280;13071;48.868;9.996;2023-04-19T13:13:42;96699.97;;;8.50;93.43
25080;BME280;13071;48.868;9.996;2023-04-19T13:16:08;96696.66;;;8.53;93.57